createdAt,value
2017-07-11T00:00:41.128Z,89.54
2017-07-11T00:03:06.984Z,89.83
2017-07-11T00:05:32.989Z,89.96
2017-07-11T00:07:59.318Z,89.11
2017-07-11T00:10:25.166Z,89.53
2017-07-11T00:12:50.996Z,87.75
2017-07-11T00:15:16.868Z,88.06
2017-07-11T00:17:42.801Z,88.75
2017-07-11T00:20:08.698Z,88.42
2017-07-11T00:22:34.577Z,87.98
2017-07-11T00:25:00.537Z,87.85
2017-07-11T00:27:26.404Z,89.03
2017-07-11T00:29:52.400Z,88.52
2017-07-11T00:32:18.320Z,88.98
2017-07-11T00:34:44.195Z,89.47
2017-07-11T00:37:10.056Z,88.86
2017-07-11T00:39:35.957Z,88.68
2017-07-11T00:42:01.857Z,87.62
2017-07-11T00:44:27.723Z,88.86
2017-07-11T00:46:53.645Z,89.23
2017-07-11T00:49:19.505Z,88.65
2017-07-11T00:51:45.367Z,88.70
2017-07-11T00:54:11.209Z,89.36
2017-07-11T00:56:37.151Z,89.44
2017-07-11T00:59:03.055Z,89.83
2017-07-11T01:01:28.992Z,87.81
2017-07-11T01:03:54.827Z,89.27
2017-07-11T01:06:20.715Z,89.23
2017-07-11T01:08:46.632Z,90.23
2017-07-11T01:11:12.476Z,91.13
2017-07-11T01:13:38.475Z,89.71
2017-07-11T01:16:04.332Z,90.57
2017-07-11T01:18:30.168Z,90.14
2017-07-11T01:20:56.237Z,89.94
2017-07-11T01:23:22.209Z,90.44
2017-07-11T01:25:48.050Z,89.90
2017-07-11T01:28:13.999Z,89.54
2017-07-11T01:30:39.862Z,90.30
2017-07-11T01:33:05.724Z,91.06
2017-07-11T01:35:31.700Z,91.27
2017-07-11T01:37:57.517Z,90.75
2017-07-11T01:40:23.361Z,91.17
2017-07-11T01:42:49.243Z,90.66
2017-07-11T01:45:15.125Z,90.42
2017-07-11T01:47:41.037Z,90.02
2017-07-11T01:50:06.971Z,91.12
2017-07-11T01:52:32.813Z,91.03
2017-07-11T01:54:58.706Z,91.15
2017-07-11T01:57:24.624Z,91.13
2017-07-11T01:59:50.456Z,90.90
2017-07-11T02:02:16.359Z,90.71
2017-07-11T02:04:42.199Z,90.97
2017-07-11T02:07:08.192Z,90.40
2017-07-11T02:09:34.218Z,90.94
2017-07-11T02:12:00.042Z,90.38
2017-07-11T02:14:26.096Z,90.64
2017-07-11T02:16:51.997Z,90.98
2017-07-11T02:19:17.900Z,89.69
2017-07-11T02:21:43.765Z,90.24
2017-07-11T02:24:09.692Z,90.60
2017-07-11T02:26:35.561Z,90.53
2017-07-11T02:29:01.408Z,91.08
2017-07-11T02:31:27.325Z,90.94
2017-07-11T02:33:53.223Z,91.12
2017-07-11T02:36:19.097Z,90.90
2017-07-11T02:38:45.000Z,91.02
2017-07-11T02:41:10.898Z,91.29
2017-07-11T02:43:36.811Z,90.99
2017-07-11T02:46:02.641Z,90.65
2017-07-11T02:48:28.500Z,90.81
2017-07-11T02:50:54.338Z,89.81
2017-07-11T02:53:20.161Z,91.19
2017-07-11T02:55:46.035Z,90.29
2017-07-11T02:58:11.963Z,90.93
2017-07-11T03:00:37.809Z,90.32
2017-07-11T03:03:03.680Z,90.44
2017-07-11T03:05:29.604Z,90.37
2017-07-11T03:07:55.457Z,90.72
2017-07-11T03:10:21.319Z,90.82
2017-07-11T03:12:47.176Z,91.45
2017-07-11T03:15:13.172Z,91.87
2017-07-11T03:17:39.142Z,90.91
2017-07-11T03:20:04.952Z,91.53
2017-07-11T03:22:30.775Z,91.20
2017-07-11T03:24:56.616Z,91.38
2017-07-11T03:27:29.302Z,90.85
2017-07-11T03:29:55.142Z,90.78
2017-07-11T03:32:20.963Z,90.32
2017-07-11T03:34:46.801Z,90.75
2017-07-11T03:37:12.605Z,90.61
2017-07-11T03:39:38.444Z,90.94
2017-07-11T03:42:04.265Z,91.18
2017-07-11T03:44:30.102Z,91.00
2017-07-11T03:46:55.986Z,90.44
2017-07-11T03:49:21.994Z,89.84
2017-07-11T03:51:47.813Z,90.28
2017-07-11T03:54:20.853Z,90.31
2017-07-11T03:56:46.741Z,90.70
2017-07-11T03:59:12.553Z,90.35
2017-07-11T04:01:38.407Z,90.06
2017-07-11T04:04:04.283Z,89.98
2017-07-11T04:06:30.095Z,90.38
2017-07-11T04:08:55.935Z,90.32
2017-07-11T04:11:21.825Z,90.08
2017-07-11T04:13:47.689Z,89.99
2017-07-11T04:16:13.545Z,90.21
2017-07-11T04:18:39.367Z,90.13
2017-07-11T04:21:05.198Z,90.14
2017-07-11T04:23:31.026Z,89.98
2017-07-11T04:25:57.040Z,90.52
2017-07-11T04:28:22.878Z,90.21
2017-07-11T04:30:48.692Z,90.20
2017-07-11T04:33:14.707Z,90.65
2017-07-11T04:35:40.517Z,90.20
2017-07-11T04:38:06.353Z,89.91
2017-07-11T04:40:32.177Z,89.79
2017-07-11T04:42:57.968Z,89.68
2017-07-11T04:45:24.867Z,89.36
2017-07-11T04:47:50.784Z,89.04
2017-07-11T04:50:17.649Z,88.27
2017-07-11T04:52:58.671Z,88.83
2017-07-11T04:55:24.679Z,88.54
2017-07-11T04:57:50.490Z,88.97
2017-07-11T05:00:16.322Z,88.46
2017-07-11T05:02:42.326Z,88.35
2017-07-11T05:05:08.121Z,88.60
2017-07-11T05:07:34.121Z,87.63
2017-07-11T05:09:59.973Z,88.32
2017-07-11T05:12:25.829Z,88.08
2017-07-11T06:36:47.566Z,77.27
2017-07-11T06:39:13.370Z,75.74
2017-07-11T06:41:39.174Z,76.03
2017-07-11T06:44:05.005Z,74.10
2017-07-11T06:46:31.393Z,77.44
2017-07-11T06:48:57.247Z,75.65
2017-07-11T06:51:23.102Z,78.37
2017-07-11T06:53:48.894Z,80.28
2017-07-11T06:56:15.075Z,78.16
2017-07-11T06:58:40.988Z,78.44
2017-07-11T07:01:07.003Z,77.63
2017-07-11T07:03:32.846Z,78.60
2017-07-11T07:05:59.459Z,78.67
2017-07-11T07:08:25.263Z,77.77
2017-07-11T07:10:51.105Z,78.06
2017-07-11T07:13:16.909Z,76.01
2017-07-11T07:15:42.714Z,75.84
2017-07-11T07:18:08.660Z,74.85
2017-07-11T07:20:34.582Z,70.89
2017-07-11T07:23:00.380Z,73.22
2017-07-11T07:25:26.247Z,74.12
2017-07-11T07:27:52.245Z,75.79
2017-07-11T07:30:18.054Z,77.12
2017-07-11T07:32:43.902Z,80.96
2017-07-11T07:35:09.919Z,82.82
2017-07-11T07:37:35.823Z,83.50
2017-07-11T07:40:01.670Z,84.33
2017-07-11T07:42:27.503Z,85.76
2017-07-11T07:44:53.773Z,85.01
2017-07-11T07:47:19.624Z,86.71
2017-07-11T07:49:45.622Z,85.24
2017-07-11T07:52:11.685Z,84.10
2017-07-11T07:54:37.599Z,85.64
2017-07-11T07:57:03.522Z,86.89
2017-07-11T07:59:29.422Z,86.14
2017-07-11T08:01:55.324Z,87.71
2017-07-11T08:04:21.398Z,88.03
2017-07-11T08:06:47.374Z,87.78
2017-07-11T08:09:13.197Z,85.49
2017-07-11T08:11:39.792Z,84.63
2017-07-11T08:14:05.601Z,81.89
2017-07-11T08:16:31.465Z,81.40
2017-07-11T08:18:57.263Z,76.46
2017-07-11T08:21:23.099Z,75.20
2017-07-11T08:23:48.943Z,75.07
2017-07-11T08:26:14.749Z,74.73
2017-07-11T08:28:40.556Z,71.08
2017-07-11T08:31:06.383Z,72.81
2017-07-11T08:33:32.187Z,73.47
2017-07-11T08:35:58.022Z,75.50
2017-07-11T08:38:23.850Z,72.51
2017-07-11T08:40:49.650Z,73.08
2017-07-11T08:43:15.719Z,75.03
2017-07-11T08:45:41.698Z,77.14
2017-07-11T08:48:07.518Z,75.50
2017-07-11T08:50:33.350Z,76.50
2017-07-11T08:52:59.150Z,79.67
2017-07-11T08:55:24.941Z,76.18
2017-07-11T08:57:50.848Z,73.86
2017-07-11T09:00:16.745Z,76.20
2017-07-11T09:02:42.585Z,77.20
2017-07-11T09:05:08.407Z,73.90
2017-07-11T09:07:34.336Z,74.34
2017-07-11T09:10:00.346Z,76.33
2017-07-11T09:12:27.074Z,75.40
2017-07-11T09:14:52.895Z,75.08
2017-07-11T09:17:18.759Z,74.31
2017-07-11T09:19:44.587Z,74.25
2017-07-11T09:22:10.435Z,74.56
2017-07-11T09:24:36.273Z,74.85
2017-07-11T09:27:02.275Z,73.36
2017-07-11T09:29:28.206Z,74.01
2017-07-11T09:31:54.675Z,72.02
2017-07-11T09:34:20.491Z,71.46
2017-07-11T09:36:46.335Z,68.29
2017-07-11T09:39:12.131Z,68.89
2017-07-11T09:41:38.669Z,69.01
2017-07-11T09:44:04.480Z,71.54
2017-07-11T09:46:30.299Z,71.10
2017-07-11T09:48:56.144Z,70.55
2017-07-11T09:51:22.194Z,72.03
2017-07-11T09:53:48.025Z,70.34
2017-07-11T09:56:13.902Z,71.69
2017-07-11T09:58:39.834Z,71.73
2017-07-11T10:01:05.673Z,71.92
2017-07-11T10:03:31.523Z,74.77
2017-07-11T10:05:57.421Z,73.18
2017-07-11T10:08:23.359Z,73.79
2017-07-11T10:10:49.405Z,72.76
2017-07-11T10:13:15.372Z,73.83
2017-07-11T10:15:41.322Z,72.44
2017-07-11T10:18:07.167Z,72.81
2017-07-11T10:20:33.029Z,73.55
2017-07-11T10:22:59.059Z,72.55
2017-07-11T10:25:24.859Z,71.72
2017-07-11T10:27:50.696Z,69.43
2017-07-11T10:30:16.511Z,70.37
2017-07-11T10:32:42.550Z,66.67
2017-07-11T10:35:08.460Z,65.44
2017-07-11T10:37:34.375Z,61.85
2017-07-11T10:40:00.182Z,63.73
2017-07-11T10:42:26.258Z,62.20
2017-07-11T10:44:52.229Z,61.28
2017-07-11T10:47:18.050Z,59.18
2017-07-11T10:49:43.863Z,60.75
2017-07-11T10:52:09.734Z,61.67
2017-07-11T10:54:35.721Z,62.10
2017-07-11T10:57:01.558Z,59.79
2017-07-11T10:59:27.373Z,62.35
2017-07-11T11:02:08.365Z,62.42
2017-07-11T11:04:35.088Z,62.91
2017-07-11T11:07:00.918Z,62.92
2017-07-11T11:09:26.782Z,63.67
2017-07-11T11:11:52.608Z,63.04
2017-07-11T11:14:18.456Z,64.54
2017-07-11T11:16:44.505Z,64.96
2017-07-11T11:19:10.415Z,64.56
2017-07-11T11:21:36.270Z,63.46
2017-07-11T11:24:02.193Z,63.38
2017-07-11T11:26:28.012Z,60.51
2017-07-11T11:28:53.823Z,61.63
2017-07-11T11:31:19.688Z,60.93
2017-07-11T11:33:45.524Z,59.48
2017-07-11T11:36:11.373Z,57.42
2017-07-11T11:38:37.291Z,58.48
2017-07-11T11:41:03.123Z,59.63
2017-07-11T11:43:29.000Z,60.43
2017-07-11T11:45:54.831Z,58.24
2017-07-11T11:48:20.856Z,60.01
2017-07-11T11:50:46.912Z,59.72
2017-07-11T11:53:12.806Z,60.68
2017-07-11T11:55:39.501Z,60.98
2017-07-11T11:58:06.169Z,60.59
2017-07-11T12:00:32.167Z,60.38
2017-07-11T12:02:58.265Z,59.63
2017-07-11T12:05:24.247Z,56.39
2017-07-11T12:07:50.121Z,56.17
2017-07-11T12:10:16.098Z,52.73
2017-07-11T12:12:42.129Z,52.63
2017-07-11T12:15:09.223Z,53.27
2017-07-11T12:17:35.148Z,53.02
2017-07-11T12:20:01.010Z,52.91
2017-07-11T12:22:27.151Z,54.49
2017-07-11T12:24:53.050Z,52.84
2017-07-11T12:27:19.076Z,54.01
2017-07-11T12:29:45.107Z,52.43
2017-07-11T12:32:11.193Z,51.68
2017-07-11T12:34:37.055Z,49.57
2017-07-11T12:37:02.912Z,49.42
2017-07-11T12:39:28.812Z,50.12
2017-07-11T12:41:54.830Z,47.72
2017-07-11T12:44:20.843Z,49.11
2017-07-11T12:46:47.654Z,50.35
2017-07-11T12:49:13.638Z,50.14
2017-07-11T12:51:39.542Z,49.97
2017-07-11T12:54:05.634Z,47.16
2017-07-11T12:56:31.556Z,45.81
2017-07-11T12:58:57.586Z,46.62
2017-07-11T13:01:23.635Z,43.29
2017-07-11T13:03:49.526Z,46.46
2017-07-11T13:06:15.335Z,46.03
2017-07-11T13:08:41.285Z,48.32
2017-07-11T13:11:07.205Z,49.08
2017-07-11T13:13:33.075Z,50.78
2017-07-11T13:15:58.927Z,51.61
2017-07-11T13:18:24.857Z,52.15
2017-07-11T13:20:50.729Z,51.32
2017-07-11T13:23:16.784Z,51.04
2017-07-11T13:25:42.707Z,51.78
2017-07-11T13:28:08.577Z,51.12
2017-07-11T13:30:34.393Z,52.15
2017-07-11T13:33:00.257Z,51.87
2017-07-11T13:35:26.301Z,51.27
2017-07-11T13:37:52.313Z,50.49
2017-07-11T13:40:18.367Z,51.68
2017-07-11T13:42:44.355Z,50.39
2017-07-11T13:45:10.379Z,50.51
2017-07-11T13:47:36.416Z,49.56
2017-07-11T13:50:02.351Z,48.76
2017-07-11T13:52:28.225Z,48.79
2017-07-11T13:54:54.058Z,48.85
2017-07-11T13:57:19.882Z,49.11
2017-07-11T13:59:45.738Z,49.27
2017-07-11T14:02:11.723Z,48.95
2017-07-11T14:04:37.545Z,49.39
2017-07-11T14:07:03.360Z,49.54
2017-07-11T14:09:29.420Z,50.29
2017-07-11T14:11:55.306Z,50.53
2017-07-11T14:14:21.135Z,51.47
2017-07-11T14:16:47.052Z,50.22
2017-07-11T14:19:12.878Z,50.27
2017-07-11T14:21:38.923Z,51.05
2017-07-11T14:24:04.820Z,51.29
2017-07-11T14:26:30.666Z,51.04
2017-07-11T14:28:56.527Z,51.55
2017-07-11T14:31:22.363Z,52.19
2017-07-11T14:33:48.426Z,53.06
2017-07-11T14:36:14.410Z,52.65
2017-07-11T14:38:40.430Z,51.56
2017-07-11T14:41:06.278Z,53.06
2017-07-11T14:43:32.186Z,50.99
2017-07-11T14:45:58.139Z,50.67
2017-07-11T14:48:24.041Z,50.03
2017-07-11T14:50:49.990Z,50.46
2017-07-11T14:53:16.038Z,49.60
2017-07-11T14:55:48.714Z,49.78
2017-07-11T14:58:14.868Z,49.07
2017-07-11T15:00:40.821Z,48.90
2017-07-11T15:03:06.781Z,48.72
2017-07-11T15:05:32.616Z,48.49
2017-07-11T15:07:58.729Z,48.73
2017-07-11T15:10:24.587Z,49.11
2017-07-11T15:12:50.541Z,47.97
2017-07-11T15:15:16.514Z,47.61
2017-07-11T15:17:42.346Z,48.94
2017-07-11T15:20:08.356Z,51.34
2017-07-11T15:22:34.264Z,49.41
2017-07-11T15:25:00.172Z,49.56
2017-07-11T15:27:26.033Z,47.62
2017-07-11T15:29:52.080Z,47.43
2017-07-11T15:32:18.070Z,48.27
2017-07-11T15:34:43.972Z,47.65
2017-07-11T15:37:09.932Z,50.06
2017-07-11T15:39:35.860Z,49.53
2017-07-11T15:42:01.741Z,49.78
2017-07-11T15:44:27.779Z,50.74
2017-07-11T15:46:53.608Z,50.98
2017-07-11T15:49:19.609Z,50.98
2017-07-11T15:51:45.488Z,51.15
2017-07-11T15:54:11.381Z,50.69
2017-07-11T15:56:37.202Z,51.20
2017-07-11T15:59:03.141Z,51.03
2017-07-11T16:01:29.039Z,50.01
2017-07-11T16:03:54.849Z,49.47
2017-07-11T16:06:20.775Z,49.24
2017-07-11T16:08:46.683Z,49.00
2017-07-11T16:11:12.626Z,49.42
2017-07-11T16:13:38.581Z,50.41
2017-07-11T16:16:04.465Z,51.36
2017-07-11T16:18:30.473Z,51.91
2017-07-11T16:20:56.426Z,52.65
2017-07-11T16:23:22.266Z,53.09
2017-07-11T16:25:48.166Z,52.51
2017-07-11T16:28:14.148Z,52.02
2017-07-11T16:30:40.166Z,51.95
2017-07-11T16:33:06.300Z,52.07
2017-07-11T16:35:32.137Z,51.96
2017-07-11T16:37:57.947Z,51.79
2017-07-11T16:40:23.826Z,51.25
2017-07-11T16:42:49.741Z,51.29
2017-07-11T16:45:15.637Z,51.07
2017-07-11T16:47:41.544Z,52.42
2017-07-11T16:50:07.458Z,52.35
2017-07-11T16:52:33.276Z,52.68
2017-07-11T16:54:59.144Z,52.38
2017-07-11T16:57:25.037Z,52.13
2017-07-11T16:59:51.048Z,52.41
2017-07-11T17:02:16.967Z,53.02
2017-07-11T17:04:42.803Z,52.09
2017-07-11T17:07:08.685Z,51.79
2017-07-11T17:09:34.545Z,53.12
2017-07-11T17:12:00.419Z,53.42
2017-07-11T17:14:26.280Z,53.14
2017-07-11T17:16:52.138Z,52.49
2017-07-11T17:19:17.987Z,53.08
2017-07-11T17:21:43.903Z,53.82
2017-07-11T17:24:09.730Z,54.14
2017-07-11T17:26:35.670Z,52.36
2017-07-11T17:29:01.565Z,52.31
2017-07-11T17:31:27.388Z,52.33
2017-07-11T17:33:53.344Z,53.10
2017-07-11T17:36:19.233Z,52.24
2017-07-11T17:38:45.058Z,51.25
2017-07-11T17:41:10.923Z,51.39
2017-07-11T17:43:36.742Z,51.40
2017-07-11T17:46:02.572Z,51.36
2017-07-11T17:48:28.456Z,51.64
2017-07-11T17:50:54.432Z,51.14
2017-07-11T17:53:20.263Z,51.77
2017-07-11T17:55:46.193Z,52.25
2017-07-11T17:58:12.138Z,52.67
2017-07-11T18:00:38.121Z,52.84
2017-07-11T18:03:03.977Z,53.70
2017-07-11T18:05:29.957Z,54.14
2017-07-11T18:07:55.793Z,54.54
2017-07-11T18:10:21.740Z,54.03
2017-07-11T18:12:47.573Z,54.57
2017-07-11T18:15:13.473Z,54.82
2017-07-11T18:17:39.387Z,54.85
2017-07-11T18:20:05.202Z,55.33
2017-07-11T18:22:31.048Z,56.24
2017-07-11T18:24:56.856Z,56.39
2017-07-11T18:27:22.834Z,56.29
2017-07-11T18:29:48.758Z,57.13
2017-07-11T18:32:14.763Z,57.58
2017-07-11T18:34:40.665Z,57.41
2017-07-11T18:37:06.545Z,58.46
2017-07-11T18:39:32.400Z,59.09
2017-07-11T18:41:58.262Z,61.28
2017-07-11T18:44:24.309Z,62.05
2017-07-11T18:46:50.225Z,62.63
2017-07-11T18:49:16.079Z,62.86
2017-07-11T18:51:41.921Z,62.37
2017-07-11T18:54:07.756Z,62.71
2017-07-11T18:56:33.816Z,63.98
2017-07-11T18:58:59.816Z,62.63
2017-07-11T19:01:25.842Z,63.26
2017-07-11T19:03:51.797Z,63.27
2017-07-11T19:06:17.729Z,64.22
2017-07-11T19:08:43.698Z,65.33
2017-07-11T19:11:09.739Z,64.87
2017-07-11T19:13:35.751Z,65.00
2017-07-11T19:16:01.638Z,65.22
2017-07-11T19:18:27.497Z,65.84
2017-07-11T19:20:53.427Z,66.00
2017-07-11T19:23:19.384Z,65.56
2017-07-11T19:25:45.355Z,65.20
2017-07-11T19:28:11.197Z,64.89
2017-07-11T19:30:37.190Z,64.42
2017-07-11T19:33:03.053Z,63.86
2017-07-11T19:35:28.914Z,63.90
2017-07-11T19:37:54.721Z,64.74
2017-07-11T19:40:20.614Z,64.39
2017-07-11T19:42:46.565Z,65.33
2017-07-11T19:45:12.413Z,65.97
2017-07-11T19:47:38.265Z,65.59
2017-07-11T19:50:04.170Z,66.16
2017-07-11T19:52:30.838Z,66.42
2017-07-11T19:54:56.657Z,66.98
2017-07-11T19:57:22.470Z,67.54
2017-07-11T19:59:48.453Z,68.52
2017-07-11T20:02:14.425Z,69.87
2017-07-11T20:04:40.469Z,70.24
2017-07-11T20:07:06.345Z,70.85
2017-07-11T20:09:32.202Z,71.32
2017-07-11T20:11:58.170Z,69.72
2017-07-11T20:14:24.026Z,68.60
2017-07-11T20:16:49.877Z,68.84
2017-07-11T20:19:15.855Z,68.88
2017-07-11T20:21:41.777Z,68.27
2017-07-11T20:24:07.689Z,71.18
2017-07-11T20:26:33.572Z,72.36
2017-07-11T20:28:59.617Z,71.65
2017-07-11T20:31:25.616Z,69.81
2017-07-11T20:33:51.451Z,69.67
2017-07-11T20:36:17.289Z,68.80
2017-07-11T20:38:43.261Z,69.59
2017-07-11T20:41:09.178Z,69.59
2017-07-11T20:43:35.047Z,69.23
2017-07-11T20:46:00.955Z,71.91
2017-07-11T20:48:26.817Z,70.35
2017-07-11T20:50:53.584Z,70.20
2017-07-11T20:53:19.425Z,72.24
2017-07-11T20:55:45.262Z,72.64
2017-07-11T20:58:11.273Z,73.30
2017-07-11T21:00:37.122Z,73.44
2017-07-11T21:03:03.157Z,73.14
2017-07-11T21:05:29.724Z,71.60
2017-07-11T21:07:55.634Z,72.59
2017-07-11T21:10:21.576Z,73.26
2017-07-11T21:12:47.557Z,74.73
2017-07-11T21:15:13.415Z,72.81
2017-07-11T21:17:39.317Z,71.86
2017-07-11T21:20:05.294Z,72.42
2017-07-11T21:22:31.259Z,73.22
2017-07-11T21:24:57.128Z,73.17
2017-07-11T21:27:23.029Z,74.25
2017-07-11T21:29:48.949Z,74.11
2017-07-11T21:32:14.838Z,74.14
2017-07-11T21:34:40.876Z,74.79
2017-07-11T21:37:06.756Z,73.69
2017-07-11T21:39:32.663Z,73.79
2017-07-11T21:41:58.637Z,74.21
2017-07-11T21:44:24.476Z,74.24
2017-07-11T21:46:50.392Z,75.60
2017-07-11T21:49:16.262Z,75.26
2017-07-11T21:51:42.116Z,74.31
2017-07-11T21:54:08.002Z,73.80
2017-07-11T21:56:33.908Z,74.33
2017-07-11T21:58:59.916Z,74.43
2017-07-11T22:01:25.870Z,75.34
2017-07-11T22:03:51.787Z,75.96
2017-07-11T22:06:17.657Z,75.74
2017-07-11T22:08:43.510Z,76.25
2017-07-11T22:11:09.523Z,75.97
2017-07-11T22:13:35.504Z,76.08
2017-07-11T22:16:01.350Z,75.68
2017-07-11T22:18:27.389Z,75.91
2017-07-11T22:20:53.383Z,75.91
2017-07-11T22:23:19.223Z,75.89
2017-07-11T22:25:45.189Z,75.79
2017-07-11T22:28:11.104Z,75.36
2017-07-11T22:30:37.125Z,75.81
2017-07-11T22:33:03.045Z,75.36
2017-07-11T22:35:28.932Z,75.78
2017-07-11T22:37:54.966Z,75.81
2017-07-11T22:40:20.904Z,76.35
2017-07-11T22:42:46.801Z,77.00
2017-07-11T22:45:12.637Z,76.67
2017-07-11T22:47:38.556Z,76.44
2017-07-11T22:50:04.435Z,76.45
2017-07-11T22:52:30.275Z,77.64
2017-07-11T22:54:56.306Z,78.35
2017-07-11T22:57:22.287Z,78.16
2017-07-11T22:59:48.138Z,77.72
2017-07-11T23:02:13.980Z,77.93
2017-07-11T23:04:39.948Z,78.77
2017-07-11T23:07:05.781Z,79.12
2017-07-11T23:09:31.619Z,79.36
2017-07-11T23:11:57.594Z,78.71
2017-07-11T23:14:23.493Z,79.29
2017-07-11T23:16:49.408Z,79.86
2017-07-11T23:19:15.247Z,78.97
2017-07-11T23:21:41.210Z,79.66
2017-07-11T23:24:07.072Z,79.92
2017-07-11T23:26:32.913Z,80.45
2017-07-11T23:28:58.806Z,80.99
2017-07-11T23:31:24.826Z,79.82
2017-07-11T23:33:50.809Z,79.66
2017-07-11T23:36:16.665Z,79.95
2017-07-11T23:38:42.614Z,79.69
2017-07-11T23:41:08.547Z,80.39
2017-07-11T23:43:34.502Z,80.88
2017-07-11T23:46:00.609Z,80.67
2017-07-11T23:48:26.485Z,80.10
2017-07-11T23:50:52.319Z,79.71
2017-07-11T23:53:18.198Z,80.50
2017-07-11T23:55:44.057Z,80.74
2017-07-11T23:58:10.856Z,80.70
